Athens, Greece
Current Conditions -  °F | °C
As of 3:50 AM on Sunday 26 Oct 2014 (Local Time) from LGEL Reporting Station
Few Clouds Few Clouds  
Wind Chill: 57°   Ceiling: Unl
Heat Index: 57°   Visibility: 6mi
Dew Point: 48°   Wind: 12mph
Humidity: 72%   Direction: 320°NW
Pressure: 29.97"   Gusts: NA
Location:  37.98°N, 23.73°E
Report Text: LGEL 260050Z 32010KT 9999 FEW025 14/09 Q1015
Loading
Personal Weather Stations






























Interactive Weather Map
Tropical Storm Tracking
New forecast layout! Learn more

10-Day Weather Forecast

Advertisements
Track Severe Weather on mobile